sensor_id;sensor_type;location;lat;lon;timestamp;P1;durP1;ratioP1;P2;durP2;ratioP2
78732;SDS011;68056;52.530;5.454;2023-04-15T00:00:10;3.13;;;2.38;;
78732;SDS011;68056;52.530;5.454;2023-04-15T00:02:36;3.83;;;2.42;;
78732;SDS011;68056;52.530;5.454;2023-04-15T00:05:02;7.45;;;3.00;;
78732;SDS011;68056;52.530;5.454;2023-04-15T00:07:28;4.90;;;2.50;;
78732;SDS011;68056;52.530;5.454;2023-04-15T00:09:55;3.90;;;2.63;;
78732;SDS011;68056;52.530;5.454;2023-04-15T00:12:22;5.38;;;2.75;;
78732;SDS011;68056;52.530;5.454;2023-04-15T00:14:48;4.43;;;2.70;;
78732;SDS011;68056;52.530;5.454;2023-04-15T00:17:14;4.35;;;2.53;;
78732;SDS011;68056;52.530;5.454;2023-04-15T00:19:39;3.72;;;2.20;;
78732;SDS011;68056;52.530;5.454;2023-04-15T00:22:05;3.67;;;2.20;;
78732;SDS011;68056;52.530;5.454;2023-04-15T00:24:32;5.03;;;2.50;;
78732;SDS011;68056;52.530;5.454;2023-04-15T00:26:58;5.63;;;2.55;;
78732;SDS011;68056;52.530;5.454;2023-04-15T00:29:24;4.18;;;2.70;;
78732;SDS011;68056;52.530;5.454;2023-04-15T00:31:50;4.35;;;2.42;;
78732;SDS011;68056;52.530;5.454;2023-04-15T00:34:16;3.80;;;2.38;;
78732;SDS011;68056;52.530;5.454;2023-04-15T00:36:41;3.60;;;2.53;;
78732;SDS011;68056;52.530;5.454;2023-04-15T00:39:08;2.83;;;2.42;;
78732;SDS011;68056;52.530;5.454;2023-04-15T00:41:33;4.90;;;2.85;;
78732;SDS011;68056;52.530;5.454;2023-04-15T00:44:00;3.47;;;2.03;;
78732;SDS011;68056;52.530;5.454;2023-04-15T00:46:27;3.78;;;2.28;;
78732;SDS011;68056;52.530;5.454;2023-04-15T00:48:54;3.75;;;2.35;;
78732;SDS011;68056;52.530;5.454;2023-04-15T00:51:20;3.83;;;2.50;;
78732;SDS011;68056;52.530;5.454;2023-04-15T00:53:46;3.92;;;2.55;;
78732;SDS011;68056;52.530;5.454;2023-04-15T00:56:11;4.60;;;2.65;;
78732;SDS011;68056;52.530;5.454;2023-04-15T00:58:38;4.25;;;2.22;;
78732;SDS011;68056;52.530;5.454;2023-04-15T01:01:04;4.45;;;2.70;;
78732;SDS011;68056;52.530;5.454;2023-04-15T01:03:30;2.58;;;1.95;;
78732;SDS011;68056;52.530;5.454;2023-04-15T01:05:55;4.40;;;2.33;;
78732;SDS011;68056;52.530;5.454;2023-04-15T01:08:27;3.63;;;2.42;;
78732;SDS011;68056;52.530;5.454;2023-04-15T01:10:54;4.72;;;2.92;;
78732;SDS011;68056;52.530;5.454;2023-04-15T01:13:22;5.28;;;2.97;;
78732;SDS011;68056;52.530;5.454;2023-04-15T01:15:48;5.82;;;2.70;;
78732;SDS011;68056;52.530;5.454;2023-04-15T01:18:15;4.57;;;2.53;;
78732;SDS011;68056;52.530;5.454;2023-04-15T01:20:42;5.00;;;2.38;;
78732;SDS011;68056;52.530;5.454;2023-04-15T01:23:07;4.45;;;2.63;;
78732;SDS011;68056;52.530;5.454;2023-04-15T01:25:34;3.50;;;2.40;;
78732;SDS011;68056;52.530;5.454;2023-04-15T01:27:59;5.15;;;2.15;;
78732;SDS011;68056;52.530;5.454;2023-04-15T01:30:26;5.63;;;3.08;;
78732;SDS011;68056;52.530;5.454;2023-04-15T01:32:51;3.70;;;2.33;;
78732;SDS011;68056;52.530;5.454;2023-04-15T01:35:17;6.22;;;2.30;;
78732;SDS011;68056;52.530;5.454;2023-04-15T01:37:43;3.78;;;2.42;;
78732;SDS011;68056;52.530;5.454;2023-04-15T01:40:09;3.05;;;2.25;;
78732;SDS011;68056;52.530;5.454;2023-04-15T01:42:35;5.47;;;1.75;;
78732;SDS011;68056;52.530;5.454;2023-04-15T01:45:01;4.78;;;2.92;;
78732;SDS011;68056;52.530;5.454;2023-04-15T01:47:27;7.97;;;2.70;;
78732;SDS011;68056;52.530;5.454;2023-04-15T01:49:53;7.25;;;2.65;;
78732;SDS011;68056;52.530;5.454;2023-04-15T01:52:18;5.50;;;2.97;;
78732;SDS011;68056;52.530;5.454;2023-04-15T01:54:44;5.38;;;2.55;;
78732;SDS011;68056;52.530;5.454;2023-04-15T01:57:10;5.07;;;2.55;;
78732;SDS011;68056;52.530;5.454;2023-04-15T01:59:36;7.60;;;2.33;;
78732;SDS011;68056;52.530;5.454;2023-04-15T02:02:02;3.72;;;2.28;;
78732;SDS011;68056;52.530;5.454;2023-04-15T02:04:28;3.40;;;2.30;;
78732;SDS011;68056;52.530;5.454;2023-04-15T02:06:53;4.82;;;2.70;;
78732;SDS011;68056;52.530;5.454;2023-04-15T02:09:19;5.03;;;2.90;;
78732;SDS011;68056;52.530;5.454;2023-04-15T02:11:45;4.55;;;2.50;;
78732;SDS011;68056;52.530;5.454;2023-04-15T02:14:10;4.30;;;2.20;;
78732;SDS011;68056;52.530;5.454;2023-04-15T02:16:36;4.13;;;2.38;;
78732;SDS011;68056;52.530;5.454;2023-04-15T02:19:02;5.05;;;2.70;;
78732;SDS011;68056;52.530;5.454;2023-04-15T02:21:28;4.53;;;3.10;;
78732;SDS011;68056;52.530;5.454;2023-04-15T02:23:54;2.60;;;1.98;;
78732;SDS011;68056;52.530;5.454;2023-04-15T02:26:20;2.78;;;2.25;;
78732;SDS011;68056;52.530;5.454;2023-04-15T02:28:46;3.03;;;2.08;;
78732;SDS011;68056;52.530;5.454;2023-04-15T02:31:13;5.50;;;2.75;;
78732;SDS011;68056;52.530;5.454;2023-04-15T02:33:39;4.60;;;2.63;;
78732;SDS011;68056;52.530;5.454;2023-04-15T02:36:04;3.70;;;2.72;;
78732;SDS011;68056;52.530;5.454;2023-04-15T02:38:32;4.78;;;2.53;;
78732;SDS011;68056;52.530;5.454;2023-04-15T02:40:57;4.25;;;2.33;;
78732;SDS011;68056;52.530;5.454;2023-04-15T02:43:23;3.83;;;3.10;;
78732;SDS011;68056;52.530;5.454;2023-04-15T02:45:49;4.35;;;2.78;;
78732;SDS011;68056;52.530;5.454;2023-04-15T02:48:15;4.80;;;2.55;;
78732;SDS011;68056;52.530;5.454;2023-04-15T02:50:43;5.63;;;2.40;;
78732;SDS011;68056;52.530;5.454;2023-04-15T02:53:09;3.65;;;2.67;;
78732;SDS011;68056;52.530;5.454;2023-04-15T02:55:35;4.93;;;2.78;;
78732;SDS011;68056;52.530;5.454;2023-04-15T02:58:01;3.97;;;2.53;;
78732;SDS011;68056;52.530;5.454;2023-04-15T03:00:26;3.53;;;2.70;;
78732;SDS011;68056;52.530;5.454;2023-04-15T03:02:56;5.57;;;2.95;;
78732;SDS011;68056;52.530;5.454;2023-04-15T03:05:23;7.45;;;3.13;;
78732;SDS011;68056;52.530;5.454;2023-04-15T03:07:49;3.33;;;2.47;;
78732;SDS011;68056;52.530;5.454;2023-04-15T03:10:15;6.10;;;2.70;;
78732;SDS011;68056;52.530;5.454;2023-04-15T03:12:41;3.42;;;2.33;;
78732;SDS011;68056;52.530;5.454;2023-04-15T03:15:07;3.88;;;2.47;;
78732;SDS011;68056;52.530;5.454;2023-04-15T03:17:33;3.40;;;2.58;;
78732;SDS011;68056;52.530;5.454;2023-04-15T03:20:00;3.33;;;2.45;;
78732;SDS011;68056;52.530;5.454;2023-04-15T03:22:32;3.40;;;2.40;;
78732;SDS011;68056;52.530;5.454;2023-04-15T03:24:58;5.20;;;2.92;;
78732;SDS011;68056;52.530;5.454;2023-04-15T03:27:24;5.53;;;3.17;;
78732;SDS011;68056;52.530;5.454;2023-04-15T03:29:50;7.28;;;2.83;;
78732;SDS011;68056;52.530;5.454;2023-04-15T03:32:16;4.43;;;3.08;;
78732;SDS011;68056;52.530;5.454;2023-04-15T03:34:42;4.97;;;2.42;;
78732;SDS011;68056;52.530;5.454;2023-04-15T03:37:07;3.85;;;2.40;;
78732;SDS011;68056;52.530;5.454;2023-04-15T03:39:33;4.63;;;3.05;;
78732;SDS011;68056;52.530;5.454;2023-04-15T03:41:59;3.88;;;2.85;;
78732;SDS011;68056;52.530;5.454;2023-04-15T03:44:25;6.50;;;3.53;;
78732;SDS011;68056;52.530;5.454;2023-04-15T03:46:51;4.07;;;2.97;;
78732;SDS011;68056;52.530;5.454;2023-04-15T03:49:17;4.35;;;3.20;;
78732;SDS011;68056;52.530;5.454;2023-04-15T03:51:43;4.70;;;3.00;;
78732;SDS011;68056;52.530;5.454;2023-04-15T03:54:09;3.70;;;2.80;;
78732;SDS011;68056;52.530;5.454;2023-04-15T03:56:35;4.13;;;3.05;;
78732;SDS011;68056;52.530;5.454;2023-04-15T03:59:01;4.97;;;2.80;;
78732;SDS011;68056;52.530;5.454;2023-04-15T04:01:26;3.95;;;2.63;;
78732;SDS011;68056;52.530;5.454;2023-04-15T04:03:52;4.70;;;3.00;;
78732;SDS011;68056;52.530;5.454;2023-04-15T04:06:18;4.85;;;3.28;;
78732;SDS011;68056;52.530;5.454;2023-04-15T04:08:43;4.55;;;3.08;;
78732;SDS011;68056;52.530;5.454;2023-04-15T04:11:09;5.00;;;2.92;;
78732;SDS011;68056;52.530;5.454;2023-04-15T04:13:35;3.90;;;3.35;;
78732;SDS011;68056;52.530;5.454;2023-04-15T04:16:00;5.85;;;2.88;;
78732;SDS011;68056;52.530;5.454;2023-04-15T04:18:28;6.93;;;3.85;;
78732;SDS011;68056;52.530;5.454;2023-04-15T04:20:55;5.00;;;3.20;;
78732;SDS011;68056;52.530;5.454;2023-04-15T04:23:20;5.05;;;3.15;;
78732;SDS011;68056;52.530;5.454;2023-04-15T04:25:46;7.57;;;3.55;;
78732;SDS011;68056;52.530;5.454;2023-04-15T04:28:12;3.55;;;2.90;;
78732;SDS011;68056;52.530;5.454;2023-04-15T04:30:37;6.05;;;3.47;;
78732;SDS011;68056;52.530;5.454;2023-04-15T04:33:03;3.97;;;3.00;;
78732;SDS011;68056;52.530;5.454;2023-04-15T04:35:29;5.65;;;3.45;;
78732;SDS011;68056;52.530;5.454;2023-04-15T04:37:54;4.32;;;2.88;;
78732;SDS011;68056;52.530;5.454;2023-04-15T04:40:20;5.15;;;3.20;;
78732;SDS011;68056;52.530;5.454;2023-04-15T04:42:46;4.35;;;2.95;;
78732;SDS011;68056;52.530;5.454;2023-04-15T04:45:11;6.13;;;3.17;;
78732;SDS011;68056;52.530;5.454;2023-04-15T04:47:37;5.70;;;3.58;;
78732;SDS011;68056;52.530;5.454;2023-04-15T04:50:03;4.88;;;3.20;;
78732;SDS011;68056;52.530;5.454;2023-04-15T04:52:28;6.03;;;3.33;;
78732;SDS011;68056;52.530;5.454;2023-04-15T04:54:54;5.57;;;3.45;;
78732;SDS011;68056;52.530;5.454;2023-04-15T04:57:20;5.80;;;3.15;;
78732;SDS011;68056;52.530;5.454;2023-04-15T04:59:45;6.03;;;3.03;;
78732;SDS011;68056;52.530;5.454;2023-04-15T05:02:11;4.05;;;2.90;;
78732;SDS011;68056;52.530;5.454;2023-04-15T05:04:37;6.03;;;3.15;;
78732;SDS011;68056;52.530;5.454;2023-04-15T05:07:02;6.47;;;3.33;;
78732;SDS011;68056;52.530;5.454;2023-04-15T05:09:28;6.55;;;3.80;;
78732;SDS011;68056;52.530;5.454;2023-04-15T05:11:56;7.15;;;3.25;;
78732;SDS011;68056;52.530;5.454;2023-04-15T05:14:21;6.20;;;3.55;;
78732;SDS011;68056;52.530;5.454;2023-04-15T05:16:47;4.55;;;3.08;;
78732;SDS011;68056;52.530;5.454;2023-04-15T05:19:12;5.20;;;3.25;;
78732;SDS011;68056;52.530;5.454;2023-04-15T05:21:38;5.32;;;3.47;;
78732;SDS011;68056;52.530;5.454;2023-04-15T05:24:04;6.13;;;3.67;;
78732;SDS011;68056;52.530;5.454;2023-04-15T05:26:29;7.18;;;4.13;;
78732;SDS011;68056;52.530;5.454;2023-04-15T05:28:55;7.07;;;3.38;;
78732;SDS011;68056;52.530;5.454;2023-04-15T05:31:21;6.18;;;3.15;;
78732;SDS011;68056;52.530;5.454;2023-04-15T05:33:46;5.85;;;3.50;;
78732;SDS011;68056;52.530;5.454;2023-04-15T05:36:12;4.43;;;3.17;;
78732;SDS011;68056;52.530;5.454;2023-04-15T05:38:38;6.68;;;3.33;;
78732;SDS011;68056;52.530;5.454;2023-04-15T05:41:03;4.88;;;3.20;;
78732;SDS011;68056;52.530;5.454;2023-04-15T05:43:29;6.60;;;3.85;;
78732;SDS011;68056;52.530;5.454;2023-04-15T05:45:55;6.72;;;3.78;;
78732;SDS011;68056;52.530;5.454;2023-04-15T05:48:20;3.17;;;2.72;;
78732;SDS011;68056;52.530;5.454;2023-04-15T05:50:46;6.40;;;3.03;;
78732;SDS011;68056;52.530;5.454;2023-04-15T05:53:11;5.35;;;3.33;;
78732;SDS011;68056;52.530;5.454;2023-04-15T05:55:37;5.43;;;3.20;;
78732;SDS011;68056;52.530;5.454;2023-04-15T05:58:02;4.95;;;2.90;;
78732;SDS011;68056;52.530;5.454;2023-04-15T06:00:28;7.20;;;3.95;;
78732;SDS011;68056;52.530;5.454;2023-04-15T06:02:54;5.78;;;3.78;;
78732;SDS011;68056;52.530;5.454;2023-04-15T06:05:22;5.25;;;3.13;;
78732;SDS011;68056;52.530;5.454;2023-04-15T06:07:48;4.88;;;2.88;;
78732;SDS011;68056;52.530;5.454;2023-04-15T06:10:14;5.60;;;3.58;;
78732;SDS011;68056;52.530;5.454;2023-04-15T06:12:40;4.18;;;3.35;;
78732;SDS011;68056;52.530;5.454;2023-04-15T06:15:06;4.40;;;3.08;;
78732;SDS011;68056;52.530;5.454;2023-04-15T06:17:34;4.43;;;2.83;;
78732;SDS011;68056;52.530;5.454;2023-04-15T06:20:00;5.97;;;3.70;;
78732;SDS011;68056;52.530;5.454;2023-04-15T06:22:25;5.70;;;3.42;;
78732;SDS011;68056;52.530;5.454;2023-04-15T06:24:51;5.93;;;4.15;;
78732;SDS011;68056;52.530;5.454;2023-04-15T06:27:17;8.10;;;4.63;;
78732;SDS011;68056;52.530;5.454;2023-04-15T06:29:42;5.68;;;4.05;;
78732;SDS011;68056;52.530;5.454;2023-04-15T06:32:09;8.63;;;4.72;;
78732;SDS011;68056;52.530;5.454;2023-04-15T06:34:35;6.78;;;4.72;;
78732;SDS011;68056;52.530;5.454;2023-04-15T06:37:01;8.25;;;4.75;;
78732;SDS011;68056;52.530;5.454;2023-04-15T06:39:26;9.23;;;4.72;;
78732;SDS011;68056;52.530;5.454;2023-04-15T06:41:52;8.13;;;4.75;;
78732;SDS011;68056;52.530;5.454;2023-04-15T06:44:18;8.20;;;5.53;;
78732;SDS011;68056;52.530;5.454;2023-04-15T06:46:43;6.43;;;4.03;;
78732;SDS011;68056;52.530;5.454;2023-04-15T06:49:09;8.98;;;4.88;;
78732;SDS011;68056;52.530;5.454;2023-04-15T06:51:35;7.47;;;4.55;;
78732;SDS011;68056;52.530;5.454;2023-04-15T06:54:01;8.75;;;4.40;;
78732;SDS011;68056;52.530;5.454;2023-04-15T06:56:30;7.53;;;4.65;;
78732;SDS011;68056;52.530;5.454;2023-04-15T06:58:56;7.38;;;4.50;;
78732;SDS011;68056;52.530;5.454;2023-04-15T07:01:22;9.27;;;5.50;;
78732;SDS011;68056;52.530;5.454;2023-04-15T07:03:48;7.05;;;3.88;;
78732;SDS011;68056;52.530;5.454;2023-04-15T07:06:13;7.63;;;4.15;;
78732;SDS011;68056;52.530;5.454;2023-04-15T07:08:39;12.38;;;7.18;;
78732;SDS011;68056;52.530;5.454;2023-04-15T07:11:04;9.93;;;5.80;;
78732;SDS011;68056;52.530;5.454;2023-04-15T07:13:30;10.85;;;6.28;;
78732;SDS011;68056;52.530;5.454;2023-04-15T07:15:57;8.95;;;5.80;;
78732;SDS011;68056;52.530;5.454;2023-04-15T07:18:22;11.00;;;6.88;;
78732;SDS011;68056;52.530;5.454;2023-04-15T07:20:48;11.43;;;5.90;;
78732;SDS011;68056;52.530;5.454;2023-04-15T07:23:13;13.73;;;7.00;;
78732;SDS011;68056;52.530;5.454;2023-04-15T07:25:40;9.25;;;5.97;;
78732;SDS011;68056;52.530;5.454;2023-04-15T07:28:05;10.30;;;6.95;;
78732;SDS011;68056;52.530;5.454;2023-04-15T07:30:31;13.68;;;7.00;;
78732;SDS011;68056;52.530;5.454;2023-04-15T07:32:57;11.68;;;6.40;;
78732;SDS011;68056;52.530;5.454;2023-04-15T07:35:23;13.27;;;7.22;;
78732;SDS011;68056;52.530;5.454;2023-04-15T07:37:49;9.57;;;5.78;;
78732;SDS011;68056;52.530;5.454;2023-04-15T07:40:16;10.02;;;6.38;;
78732;SDS011;68056;52.530;5.454;2023-04-15T07:42:42;9.07;;;5.53;;
78732;SDS011;68056;52.530;5.454;2023-04-15T07:45:08;10.18;;;5.03;;
78732;SDS011;68056;52.530;5.454;2023-04-15T07:47:34;7.40;;;5.05;;
78732;SDS011;68056;52.530;5.454;2023-04-15T07:50:00;9.13;;;4.38;;
78732;SDS011;68056;52.530;5.454;2023-04-15T07:52:26;5.80;;;4.18;;
78732;SDS011;68056;52.530;5.454;2023-04-15T07:54:52;7.18;;;4.32;;
78732;SDS011;68056;52.530;5.454;2023-04-15T07:57:18;6.45;;;3.92;;
78732;SDS011;68056;52.530;5.454;2023-04-15T07:59:43;4.50;;;3.47;;
78732;SDS011;68056;52.530;5.454;2023-04-15T08:02:09;5.40;;;3.70;;
78732;SDS011;68056;52.530;5.454;2023-04-15T08:04:35;5.43;;;3.38;;
78732;SDS011;68056;52.530;5.454;2023-04-15T08:07:01;3.72;;;2.90;;
78732;SDS011;68056;52.530;5.454;2023-04-15T08:09:27;5.20;;;3.35;;
78732;SDS011;68056;52.530;5.454;2023-04-15T08:11:53;6.13;;;3.92;;
78732;SDS011;68056;52.530;5.454;2023-04-15T08:14:19;4.30;;;3.00;;
78732;SDS011;68056;52.530;5.454;2023-04-15T08:16:44;4.25;;;2.80;;
78732;SDS011;68056;52.530;5.454;2023-04-15T08:19:10;4.22;;;2.63;;
78732;SDS011;68056;52.530;5.454;2023-04-15T08:21:35;4.90;;;2.75;;
78732;SDS011;68056;52.530;5.454;2023-04-15T08:24:01;4.90;;;3.33;;
78732;SDS011;68056;52.530;5.454;2023-04-15T08:26:27;3.95;;;2.80;;
78732;SDS011;68056;52.530;5.454;2023-04-15T08:28:53;5.07;;;3.15;;
78732;SDS011;68056;52.530;5.454;2023-04-15T08:31:18;3.75;;;2.90;;
78732;SDS011;68056;52.530;5.454;2023-04-15T08:33:44;3.78;;;2.83;;
78732;SDS011;68056;52.530;5.454;2023-04-15T08:36:10;5.35;;;3.25;;
78732;SDS011;68056;52.530;5.454;2023-04-15T08:38:37;3.80;;;2.72;;
78732;SDS011;68056;52.530;5.454;2023-04-15T08:41:06;4.10;;;2.75;;
78732;SDS011;68056;52.530;5.454;2023-04-15T08:43:39;3.13;;;2.55;;
78732;SDS011;68056;52.530;5.454;2023-04-15T08:46:21;3.75;;;2.60;;
78732;SDS011;68056;52.530;5.454;2023-04-15T08:48:47;3.45;;;2.45;;
78732;SDS011;68056;52.530;5.454;2023-04-15T08:51:14;3.83;;;2.88;;
78732;SDS011;68056;52.530;5.454;2023-04-15T08:53:42;5.28;;;3.25;;
78732;SDS011;68056;52.530;5.454;2023-04-15T08:56:08;4.28;;;2.90;;
78732;SDS011;68056;52.530;5.454;2023-04-15T08:58:36;4.95;;;3.05;;
78732;SDS011;68056;52.530;5.454;2023-04-15T09:01:02;4.30;;;2.78;;
78732;SDS011;68056;52.530;5.454;2023-04-15T09:03:27;4.30;;;2.55;;
78732;SDS011;68056;52.530;5.454;2023-04-15T09:05:54;4.80;;;3.25;;
78732;SDS011;68056;52.530;5.454;2023-04-15T09:08:21;3.80;;;2.92;;
78732;SDS011;68056;52.530;5.454;2023-04-15T09:10:46;7.05;;;4.10;;
78732;SDS011;68056;52.530;5.454;2023-04-15T09:13:12;3.95;;;2.83;;
78732;SDS011;68056;52.530;5.454;2023-04-15T09:15:38;3.97;;;3.17;;
78732;SDS011;68056;52.530;5.454;2023-04-15T09:18:04;4.65;;;3.35;;
78732;SDS011;68056;52.530;5.454;2023-04-15T09:20:32;4.93;;;2.85;;
78732;SDS011;68056;52.530;5.454;2023-04-15T09:23:13;4.35;;;3.50;;
78732;SDS011;68056;52.530;5.454;2023-04-15T09:25:39;3.55;;;2.38;;
78732;SDS011;68056;52.530;5.454;2023-04-15T09:28:08;5.38;;;3.33;;
78732;SDS011;68056;52.530;5.454;2023-04-15T09:30:34;5.78;;;3.58;;
78732;SDS011;68056;52.530;5.454;2023-04-15T09:35:19;3.97;;;3.05;;
78732;SDS011;68056;52.530;5.454;2023-04-15T09:37:46;3.42;;;3.08;;
78732;SDS011;68056;52.530;5.454;2023-04-15T09:40:12;5.55;;;3.70;;
78732;SDS011;68056;52.530;5.454;2023-04-15T09:42:54;5.40;;;2.90;;
78732;SDS011;68056;52.530;5.454;2023-04-15T09:45:20;6.15;;;3.80;;
78732;SDS011;68056;52.530;5.454;2023-04-15T09:47:47;4.80;;;3.38;;
78732;SDS011;68056;52.530;5.454;2023-04-15T09:50:13;4.00;;;2.85;;
78732;SDS011;68056;52.530;5.454;2023-04-15T09:52:41;3.95;;;2.10;;
78732;SDS011;68056;52.530;5.454;2023-04-15T09:55:07;2.25;;;1.45;;
78732;SDS011;68056;52.530;5.454;2023-04-15T09:57:34;1.90;;;1.23;;
78732;SDS011;68056;52.530;5.454;2023-04-15T10:00:04;1.30;;;1.15;;
78732;SDS011;68056;52.530;5.454;2023-04-15T10:02:33;2.28;;;1.50;;
78732;SDS011;68056;52.530;5.454;2023-04-15T10:05:00;2.33;;;1.40;;
78732;SDS011;68056;52.530;5.454;2023-04-15T10:07:26;1.90;;;1.60;;
78732;SDS011;68056;52.530;5.454;2023-04-15T10:09:52;2.88;;;1.65;;
78732;SDS011;68056;52.530;5.454;2023-04-15T10:12:18;1.40;;;0.90;;
78732;SDS011;68056;52.530;5.454;2023-04-15T10:14:47;2.08;;;1.50;;
78732;SDS011;68056;52.530;5.454;2023-04-15T10:17:17;2.17;;;1.52;;
78732;SDS011;68056;52.530;5.454;2023-04-15T10:19:46;2.33;;;1.25;;
78732;SDS011;68056;52.530;5.454;2023-04-15T10:22:13;2.05;;;1.40;;
78732;SDS011;68056;52.530;5.454;2023-04-15T10:24:40;2.25;;;1.45;;
78732;SDS011;68056;52.530;5.454;2023-04-15T10:27:07;3.25;;;1.63;;
78732;SDS011;68056;52.530;5.454;2023-04-15T10:29:33;2.78;;;1.60;;
78732;SDS011;68056;52.530;5.454;2023-04-15T10:31:59;4.07;;;2.00;;
78732;SDS011;68056;52.530;5.454;2023-04-15T10:34:25;2.42;;;1.95;;
78732;SDS011;68056;52.530;5.454;2023-04-15T10:36:55;2.67;;;2.00;;
78732;SDS011;68056;52.530;5.454;2023-04-15T10:42:05;2.65;;;2.05;;
78732;SDS011;68056;52.530;5.454;2023-04-15T10:44:40;2.70;;;1.77;;
78732;SDS011;68056;52.530;5.454;2023-04-15T10:47:12;5.00;;;1.98;;
78732;SDS011;68056;52.530;5.454;2023-04-15T10:49:47;3.03;;;2.10;;
78732;SDS011;68056;52.530;5.454;2023-04-15T10:52:25;4.10;;;2.42;;
78732;SDS011;68056;52.530;5.454;2023-04-15T10:55:03;3.38;;;2.17;;
78732;SDS011;68056;52.530;5.454;2023-04-15T10:57:42;3.42;;;1.70;;
78732;SDS011;68056;52.530;5.454;2023-04-15T11:00:09;1.90;;;1.38;;
78732;SDS011;68056;52.530;5.454;2023-04-15T11:02:45;2.25;;;1.63;;
78732;SDS011;68056;52.530;5.454;2023-04-15T11:05:17;3.53;;;1.67;;
78732;SDS011;68056;52.530;5.454;2023-04-15T11:07:51;1.98;;;1.52;;
78732;SDS011;68056;52.530;5.454;2023-04-15T11:12:56;4.15;;;1.88;;
78732;SDS011;68056;52.530;5.454;2023-04-15T11:20:23;1.55;;;1.27;;
78732;SDS011;68056;52.530;5.454;2023-04-15T11:22:49;2.45;;;1.80;;
78732;SDS011;68056;52.530;5.454;2023-04-15T11:25:26;2.72;;;1.45;;
78732;SDS011;68056;52.530;5.454;2023-04-15T11:27:53;1.98;;;1.40;;
78732;SDS011;68056;52.530;5.454;2023-04-15T11:32:47;3.60;;;1.58;;
78732;SDS011;68056;52.530;5.454;2023-04-15T11:35:15;2.30;;;1.42;;
78732;SDS011;68056;52.530;5.454;2023-04-15T11:37:42;1.55;;;1.30;;
78732;SDS011;68056;52.530;5.454;2023-04-15T11:40:08;2.63;;;1.27;;
78732;SDS011;68056;52.530;5.454;2023-04-15T11:42:34;2.33;;;1.10;;
78732;SDS011;68056;52.530;5.454;2023-04-15T11:45:06;3.65;;;1.35;;
78732;SDS011;68056;52.530;5.454;2023-04-15T11:47:33;1.92;;;1.00;;
78732;SDS011;68056;52.530;5.454;2023-04-15T11:52:58;3.20;;;1.10;;
78732;SDS011;68056;52.530;5.454;2023-04-15T11:55:28;1.35;;;1.10;;
78732;SDS011;68056;52.530;5.454;2023-04-15T11:58:08;1.92;;;1.13;;
78732;SDS011;68056;52.530;5.454;2023-04-15T12:00:35;1.88;;;1.10;;
78732;SDS011;68056;52.530;5.454;2023-04-15T12:03:18;2.80;;;1.40;;
78732;SDS011;68056;52.530;5.454;2023-04-15T12:11:37;1.55;;;1.10;;
78732;SDS011;68056;52.530;5.454;2023-04-15T12:16:51;3.55;;;1.20;;
78732;SDS011;68056;52.530;5.454;2023-04-15T12:19:29;1.65;;;1.02;;
78732;SDS011;68056;52.530;5.454;2023-04-15T12:22:03;1.88;;;1.15;;
78732;SDS011;68056;52.530;5.454;2023-04-15T12:24:31;1.58;;;0.85;;
78732;SDS011;68056;52.530;5.454;2023-04-15T12:27:00;1.45;;;1.00;;
78732;SDS011;68056;52.530;5.454;2023-04-15T12:29:30;3.08;;;1.05;;
78732;SDS011;68056;52.530;5.454;2023-04-15T12:32:17;2.08;;;0.80;;
78732;SDS011;68056;52.530;5.454;2023-04-15T12:34:51;2.38;;;0.80;;
78732;SDS011;68056;52.530;5.454;2023-04-15T12:37:20;1.27;;;0.82;;
78732;SDS011;68056;52.530;5.454;2023-04-15T12:39:46;0.80;;;0.60;;
78732;SDS011;68056;52.530;5.454;2023-04-15T12:44:39;0.95;;;0.65;;
78732;SDS011;68056;52.530;5.454;2023-04-15T12:47:05;1.20;;;0.63;;
78732;SDS011;68056;52.530;5.454;2023-04-15T12:49:31;1.42;;;1.00;;
78732;SDS011;68056;52.530;5.454;2023-04-15T12:51:58;1.45;;;0.75;;
78732;SDS011;68056;52.530;5.454;2023-04-15T12:54:25;2.38;;;1.00;;
78732;SDS011;68056;52.530;5.454;2023-04-15T12:56:51;1.33;;;0.80;;
78732;SDS011;68056;52.530;5.454;2023-04-15T12:59:18;2.55;;;0.93;;
78732;SDS011;68056;52.530;5.454;2023-04-15T13:01:44;2.47;;;0.70;;
78732;SDS011;68056;52.530;5.454;2023-04-15T13:04:11;2.15;;;0.88;;
78732;SDS011;68056;52.530;5.454;2023-04-15T13:06:36;1.52;;;0.60;;
78732;SDS011;68056;52.530;5.454;2023-04-15T13:09:02;1.00;;;0.70;;
78732;SDS011;68056;52.530;5.454;2023-04-15T13:11:29;2.03;;;0.77;;
78732;SDS011;68056;52.530;5.454;2023-04-15T13:14:05;1.05;;;0.70;;
78732;SDS011;68056;52.530;5.454;2023-04-15T13:16:32;1.10;;;0.80;;
78732;SDS011;68056;52.530;5.454;2023-04-15T13:18:59;2.75;;;0.85;;
78732;SDS011;68056;52.530;5.454;2023-04-15T13:21:25;1.17;;;0.73;;
78732;SDS011;68056;52.530;5.454;2023-04-15T13:23:51;2.67;;;1.00;;
78732;SDS011;68056;52.530;5.454;2023-04-15T13:26:18;2.60;;;1.00;;
78732;SDS011;68056;52.530;5.454;2023-04-15T13:28:43;5.10;;;1.20;;
78732;SDS011;68056;52.530;5.454;2023-04-15T13:31:10;3.60;;;1.10;;
78732;SDS011;68056;52.530;5.454;2023-04-15T13:33:35;2.33;;;0.98;;
78732;SDS011;68056;52.530;5.454;2023-04-15T13:36:01;1.45;;;0.95;;
78732;SDS011;68056;52.530;5.454;2023-04-15T13:38:27;4.72;;;0.90;;
78732;SDS011;68056;52.530;5.454;2023-04-15T13:40:52;3.20;;;1.30;;
78732;SDS011;68056;52.530;5.454;2023-04-15T13:43:18;2.03;;;1.33;;
78732;SDS011;68056;52.530;5.454;2023-04-15T13:48:11;2.05;;;0.73;;
78732;SDS011;68056;52.530;5.454;2023-04-15T13:50:36;2.88;;;1.05;;
78732;SDS011;68056;52.530;5.454;2023-04-15T13:53:02;1.77;;;0.80;;
78732;SDS011;68056;52.530;5.454;2023-04-15T13:55:27;2.72;;;0.73;;
78732;SDS011;68056;52.530;5.454;2023-04-15T13:57:53;2.53;;;0.95;;
78732;SDS011;68056;52.530;5.454;2023-04-15T14:00:18;1.02;;;0.63;;
78732;SDS011;68056;52.530;5.454;2023-04-15T14:02:44;2.47;;;0.50;;
78732;SDS011;68056;52.530;5.454;2023-04-15T14:05:10;4.47;;;0.77;;
78732;SDS011;68056;52.530;5.454;2023-04-15T14:07:36;2.92;;;0.60;;
78732;SDS011;68056;52.530;5.454;2023-04-15T14:10:02;3.10;;;0.50;;
78732;SDS011;68056;52.530;5.454;2023-04-15T14:12:28;1.23;;;0.57;;
78732;SDS011;68056;52.530;5.454;2023-04-15T14:14:53;1.77;;;0.60;;
78732;SDS011;68056;52.530;5.454;2023-04-15T14:17:19;4.03;;;0.60;;
78732;SDS011;68056;52.530;5.454;2023-04-15T14:19:44;2.47;;;0.70;;
78732;SDS011;68056;52.530;5.454;2023-04-15T14:22:10;1.40;;;0.60;;
78732;SDS011;68056;52.530;5.454;2023-04-15T14:24:36;2.38;;;0.60;;
78732;SDS011;68056;52.530;5.454;2023-04-15T14:27:01;4.43;;;0.70;;
78732;SDS011;68056;52.530;5.454;2023-04-15T14:29:27;4.28;;;0.90;;
78732;SDS011;68056;52.530;5.454;2023-04-15T14:31:53;3.30;;;0.60;;
78732;SDS011;68056;52.530;5.454;2023-04-15T14:34:21;4.65;;;0.70;;
78732;SDS011;68056;52.530;5.454;2023-04-15T14:36:49;3.70;;;0.88;;
78732;SDS011;68056;52.530;5.454;2023-04-15T14:39:15;1.67;;;0.77;;
78732;SDS011;68056;52.530;5.454;2023-04-15T14:41:40;3.00;;;0.50;;
78732;SDS011;68056;52.530;5.454;2023-04-15T14:44:06;2.15;;;0.50;;
78732;SDS011;68056;52.530;5.454;2023-04-15T14:46:33;2.75;;;0.60;;
78732;SDS011;68056;52.530;5.454;2023-04-15T14:48:59;4.22;;;0.75;;
78732;SDS011;68056;52.530;5.454;2023-04-15T14:51:25;3.85;;;0.88;;
78732;SDS011;68056;52.530;5.454;2023-04-15T14:53:50;1.17;;;0.40;;
78732;SDS011;68056;52.530;5.454;2023-04-15T14:56:16;3.10;;;0.60;;
78732;SDS011;68056;52.530;5.454;2023-04-15T14:58:41;2.38;;;0.60;;
78732;SDS011;68056;52.530;5.454;2023-04-15T15:01:07;4.07;;;0.77;;
78732;SDS011;68056;52.530;5.454;2023-04-15T15:03:33;4.32;;;0.55;;
78732;SDS011;68056;52.530;5.454;2023-04-15T15:05:58;3.95;;;0.90;;
78732;SDS011;68056;52.530;5.454;2023-04-15T15:08:24;0.88;;;0.40;;
78732;SDS011;68056;52.530;5.454;2023-04-15T15:10:50;2.42;;;0.60;;
78732;SDS011;68056;52.530;5.454;2023-04-15T15:13:15;3.60;;;0.70;;
78732;SDS011;68056;52.530;5.454;2023-04-15T15:15:41;5.93;;;2.08;;